Terminal Aerodrome Forecast
Issued by NWS Jacksonville, FL

Home | Current Version | Previous Version | Text Only | Print | Product List | Glossary On
Versions: 1 2 3 4 5 6 7 8 9 10 11 12 13 14 15 16 17 18 19 20 21 22 23 24 25 26 27 28 29 30 31 32 33 34 35 36 37 38 39 40
000
FTUS42 KJAX 171125
TAFJAX
TAF
KJAX 171125Z 1712/1812 00000KT P6SM FEW015 SCT250
     FM171300 17005KT P6SM SCT015 SCT045 SCT200
     FM171700 17008KT P6SM VCTS SCT035CB SCT090 BKN150
      TEMPO 1717/1720 VRB15G25KT 3SM +TSRA BR SCT020 BKN030CB OVC070
     FM172100 12011KT P6SM VCSH SCT025 BKN090 OVC150
     FM180000 12008KT P6SM FEW015 SCT150 BKN250=

USA.gov is the U.S. government's official web portal to all federal, state and local government web resources and services.